Genco Loire — V7GN8 — position and weather

sailwx.info

Track history (hours):
 
Tides and Currents Weather Stations Pressure Air Temp Water Temp Dewpoint Dewpoint Depression Visibility Wind Speed Wind Dir Waves Ship Positions

Genco Loire

Last reported at 2016-Aug-05 10:26 UTC. Time now 2016-Aug-25 14:56 UTC.
Position N 25°50' W 015°60'.
Warning: this ship's position is 20 days out of date.

Length 190 m; draft 11.5 m.

MMSI: 538002760.

Date/timePositionNaut miles runAvg speedWind from/ knotsBaromVisibWave heightAir tempDewpointWater temp
2016-Aug-05 10:26N 25°50' W 015°60'4711.3
2016-Aug-05 06:19N 26°33' W 015°41'6911.7
2016-Aug-05 00:26N 27°37' W 015°13'1112.0
2016-Aug-04 23:33N 27°47' W 015°09'1211.9
2016-Aug-04 22:33N 27°58' W 015°04'1211.6
2016-Aug-04 21:33N 28°09' W 014°60'1111.5
2016-Aug-04 20:33N 28°20' W 014°56'1111.3
2016-Aug-04 19:33N 28°31' W 014°53'1111.3
2016-Aug-04 18:33N 28°42' W 014°48'17 8.4
2016-Aug-04 16:34N 28°58' W 014°43'2010.0
2016-Aug-04 14:32N 29°17' W 014°37'1110.9
2016-Aug-04 13:33N 29°28' W 014°34'1110.8
2016-Aug-04 12:33N 29°38' W 014°31'1210.7
2016-Aug-04 11:28N 29°49' W 014°27'1010.8
2016-Aug-04 10:33N 29°59' W 014°24'1110.8
2016-Aug-04 09:33N 30°09' W 014°21'1311.1
2016-Aug-04 08:25N 30°22' W 014°17'40711.3
2016-Aug-02 20:24N 36°54' W 012°11'2211.2
2016-Aug-02 18:25N 37°16' W 012°03'1111.2
2016-Aug-02 17:27N 37°26' W 011°60'1311.5
2016-Aug-02 16:20N 37°38' W 011°56'  
2016-Jul-30 16:20N 49°39' W 003°50'810.0
2016-Jul-30 15:31N 49°43' W 003°39'1010.0
2016-Jul-30 14:34N 49°48' W 003°27'1010.3
2016-Jul-30 13:33N 49°53' W 003°13'1111.2
2016-Jul-30 12:34N 49°59' W 002°58'1312.2
2016-Jul-30 11:30N 50°02' W 002°38'8810.9
2016-Jul-30 03:22N 50°27' W 000°26'810.1
2016-Jul-30 02:33N 50°29' W 000°13'1110.9
2016-Jul-30 01:33N 50°32' E 000°03'1211.5
2016-Jul-30 00:32N 50°36' E 000°21'4010.2
2016-Jul-29 20:34N 50°58' E 001°15'8 8.3
2016-Jul-29 19:33N 51°03' E 001°25'9 8.7
2016-Jul-29 18:34N 51°08' E 001°36'9 9.4
2016-Jul-29 17:34N 51°15' E 001°46'1111.1
2016-Jul-29 16:33N 51°25' E 001°55'1111.5
2016-Jul-29 15:34N 51°34' E 002°07'1211.6
2016-Jul-29 14:33N 51°42' E 002°19'16410.2
2016-Jul-28 22:29N 53°57' E 004°54'1111.1
2016-Jul-28 21:32N 54°07' E 005°01'1111.2
2016-Jul-28 20:33N 54°17' E 005°08'278 9.5
2016-Jul-27 15:26N 57°50' E 010°29'8 9.5
2016-Jul-27 14:33N 57°49' E 010°45'1110.9
2016-Jul-27 13:33N 57°41' E 010°60'1212.0
2016-Jul-27 12:33N 57°33' E 011°16'1211.7
2016-Jul-27 11:34N 57°24' E 011°29'1312.5
2016-Jul-27 10:33N 57°12' E 011°37'1212.2
2016-Jul-27 09:33N 57°00' E 011°44'1211.7
2016-Jul-27 08:33N 56°49' E 011°51'9910.8
2016-Jul-26 23:23N 55°14' E 011°06'910.8
2016-Jul-26 22:33N 55°05' E 010°59'1110.8
2016-Jul-26 21:33N 54°55' E 010°52'1111.4
2016-Jul-26 20:33N 54°44' E 010°47'7 7.2
2016-Jul-26 19:33N 54°38' E 010°54'1010.0
2016-Jul-26 18:33N 54°36' E 011°11'1110.7
2016-Jul-26 17:33N 54°31' E 011°27'1111.1
2016-Jul-26 16:33N 54°27' E 011°45'1110.7
2016-Jul-26 15:33N 54°26' E 012°03'9 9.2
2016-Jul-26 14:33N 54°32' E 012°14'1010.2
2016-Jul-26 13:34N 54°40' E 012°25'  
Track history (hours):
 
Tides and Currents Weather Stations Pressure Air Temp Water Temp Dewpoint Dewpoint Depression Visibility Wind Speed Wind Dir Waves Ship Positions

Genco Loire

Last reported at 2016-Aug-05 10:26 UTC. Time now 2016-Aug-25 14:56 UTC.
Position N 25°50' W 015°60'.
Warning: this ship's position is 20 days out of date.

Length 190 m; draft 11.5 m.

MMSI: 538002760.

Date/timePositionNaut miles runAvg speedWind from/ knotsBaromVisibWave heightAir tempDewpointWater temp
2016-Aug-05 10:26N 25°50' W 015°60'4711.3
2016-Aug-05 06:19N 26°33' W 015°41'6911.7
2016-Aug-05 00:26N 27°37' W 015°13'1112.0
2016-Aug-04 23:33N 27°47' W 015°09'1211.9
2016-Aug-04 22:33N 27°58' W 015°04'1211.6
2016-Aug-04 21:33N 28°09' W 014°60'1111.5
2016-Aug-04 20:33N 28°20' W 014°56'1111.3
2016-Aug-04 19:33N 28°31' W 014°53'1111.3
2016-Aug-04 18:33N 28°42' W 014°48'17 8.4
2016-Aug-04 16:34N 28°58' W 014°43'2010.0
2016-Aug-04 14:32N 29°17' W 014°37'1110.9
2016-Aug-04 13:33N 29°28' W 014°34'1110.8
2016-Aug-04 12:33N 29°38' W 014°31'1210.7
2016-Aug-04 11:28N 29°49' W 014°27'1010.8
2016-Aug-04 10:33N 29°59' W 014°24'1110.8
2016-Aug-04 09:33N 30°09' W 014°21'1311.1
2016-Aug-04 08:25N 30°22' W 014°17'40711.3
2016-Aug-02 20:24N 36°54' W 012°11'2211.2
2016-Aug-02 18:25N 37°16' W 012°03'1111.2
2016-Aug-02 17:27N 37°26' W 011°60'1311.5
2016-Aug-02 16:20N 37°38' W 011°56'  
2016-Jul-30 16:20N 49°39' W 003°50'810.0
2016-Jul-30 15:31N 49°43' W 003°39'1010.0
2016-Jul-30 14:34N 49°48' W 003°27'1010.3
2016-Jul-30 13:33N 49°53' W 003°13'1111.2
2016-Jul-30 12:34N 49°59' W 002°58'1312.2
2016-Jul-30 11:30N 50°02' W 002°38'8810.9
2016-Jul-30 03:22N 50°27' W 000°26'810.1
2016-Jul-30 02:33N 50°29' W 000°13'1110.9
2016-Jul-30 01:33N 50°32' E 000°03'1211.5
2016-Jul-30 00:32N 50°36' E 000°21'4010.2
2016-Jul-29 20:34N 50°58' E 001°15'8 8.3
2016-Jul-29 19:33N 51°03' E 001°25'9 8.7
2016-Jul-29 18:34N 51°08' E 001°36'9 9.4
2016-Jul-29 17:34N 51°15' E 001°46'1111.1
2016-Jul-29 16:33N 51°25' E 001°55'1111.5
2016-Jul-29 15:34N 51°34' E 002°07'1211.6
2016-Jul-29 14:33N 51°42' E 002°19'16410.2
2016-Jul-28 22:29N 53°57' E 004°54'1111.1
2016-Jul-28 21:32N 54°07' E 005°01'1111.2
2016-Jul-28 20:33N 54°17' E 005°08'278 9.5
2016-Jul-27 15:26N 57°50' E 010°29'8 9.5
2016-Jul-27 14:33N 57°49' E 010°45'1110.9
2016-Jul-27 13:33N 57°41' E 010°60'1212.0
2016-Jul-27 12:33N 57°33' E 011°16'1211.7
2016-Jul-27 11:34N 57°24' E 011°29'1312.5
2016-Jul-27 10:33N 57°12' E 011°37'1212.2
2016-Jul-27 09:33N 57°00' E 011°44'1211.7
2016-Jul-27 08:33N 56°49' E 011°51'9910.8
2016-Jul-26 23:23N 55°14' E 011°06'910.8
2016-Jul-26 22:33N 55°05' E 010°59'1110.8
2016-Jul-26 21:33N 54°55' E 010°52'1111.4
2016-Jul-26 20:33N 54°44' E 010°47'7 7.2
2016-Jul-26 19:33N 54°38' E 010°54'1010.0
2016-Jul-26 18:33N 54°36' E 011°11'1110.7
2016-Jul-26 17:33N 54°31' E 011°27'1111.1
2016-Jul-26 16:33N 54°27' E 011°45'1110.7
2016-Jul-26 15:33N 54°26' E 012°03'9 9.2
2016-Jul-26 14:33N 54°32' E 012°14'1010.2
2016-Jul-26 13:34N 54°40' E 012°25'  

Dump ship's entire track history